LYNI

Nis Airport

Nis, Serbia
TAF LYNI 211700Z 2118/2218 09004KT CAVOK TX34/2214Z TN16/2203Z TEMPO 2209/2215 20010KT PROB30 TEMPO 2215/2218 TS FEW030CB SCT040
Issued Valid From Valid To
Jul-21 @ 17:00 UTC
(6 hours ago)
Jul-21 @ 18:00 UTC
(5 hours ago)
Jul-22 @ 18:00 UTC
(in 19 hours)
Jul-21 @ 18:00 to Jul-22 @ 18:00
TAF LYNI 211700Z 2118/2218 09004KT CAVOK TX34/2214Z TN16/2203Z
Wind Visibility Clouds
90° at 4 knots 10,000+ meters
  • No significant clouds
Temporary Jul-22 @ 09:00 to Jul-22 @ 15:00
TEMPO 2209/2215 20010KT
Wind
200° at 10 knots
Temporary  (Probability 30%) Jul-22 @ 15:00 to Jul-22 @ 18:00
PROB30 TEMPO 2215/2218 TS FEW030CB SCT040
Clouds Conditions
  • Few at 3,000' AGL
  • Scattered at 4,000' AGL
  • Thunderstorm
TAF LYNI 211700Z 2118/2218 09004KT CAVOK TX34/2214Z TN16/2203Z TEMPO 2209/2215 20010KT PROB30 TEMPO 2215/2218 TS FEW030CB SCT040
Issued Jul-21 @ 17:00 UTC
(6 hours ago)
Valid From Jul-21 @ 18:00 UTC
(5 hours ago)
Valid To Jul-22 @ 18:00 UTC
(in 19 hours)
Jul-21 @ 18:00 - Jul-22 @ 18:00
Wind Visibility
90° at 4 knots 10,000+ meters
Clouds
  • No significant clouds
Temporary Jul-22 @ 09:00 - Jul-22 @ 15:00
Wind
200° at 10 knots
Probability 30% Temporary Jul-22 @ 15:00 - Jul-22 @ 18:00
Clouds
  • Few at 3,000' AGL
  • Scattered at 4,000' AGL
Conditions
  • Thunderstorm